Time;durP1;ratioP1;P1;durP2;ratioP2;P2;SDS_P1;SDS_P2;PMS_P1;PMS_P2;Temp;Humidity;BMP_temperature;BMP_pressure;BME280_temperature;BME280_humidity;BME280_pressure;Samples;Min_cycle;Max_cycle;Signal;HPM_P1;HPM_P2
2021/12/23 00:00:55;;;;;;;57.85;32.60;;;0.90;75.10;;;;;;5033874;28;20391;-56
2021/12/23 00:03:21;;;;;;;55.58;33.03;;;0.80;74.90;;;;;;5033984;28;20485;-65
2021/12/23 00:05:47;;;;;;;55.50;32.22;;;0.80;75.10;;;;;;5050801;28;20037;-65
2021/12/23 00:08:12;;;;;;;52.05;30.83;;;0.70;75.20;;;;;;5051294;28;20510;-65
2021/12/23 00:10:40;;;;;;;58.22;33.38;;;0.70;75.30;;;;;;5051361;28;20094;-59
2021/12/23 00:13:06;;;;;;;52.60;32.75;;;0.70;75.30;;;;;;5051431;28;20476;-61
2021/12/23 00:15:39;;;;;;;57.25;32.85;;;0.70;75.10;;;;;;5051878;28;20040;-61
2021/12/23 00:25:47;;;;;;;59.42;32.72;;;0.70;75.30;;;;;;5050884;28;20517;-64
2021/12/23 00:28:12;;;;;;;59.80;32.55;;;0.70;75.50;;;;;;5051418;28;20045;-61
2021/12/23 00:30:38;;;;;;;54.35;31.85;;;0.70;75.20;;;;;;5050025;28;20033;-63
2021/12/23 00:33:04;;;;;;;57.97;33.63;;;0.70;75.10;;;;;;5051770;28;20029;-63
2021/12/23 00:35:30;;;;;;;52.60;31.58;;;0.80;75.00;;;;;;5051208;28;20385;-64
2021/12/23 00:38:01;;;;;;;56.20;31.52;;;0.70;75.00;;;;;;5050769;28;20327;-64
2021/12/23 00:40:27;;;;;;;48.75;30.58;;;0.80;74.80;;;;;;5033416;28;20059;-58
2021/12/23 00:42:52;;;;;;;54.03;30.75;;;0.70;74.70;;;;;;5033036;28;20123;-63
2021/12/23 00:45:18;;;;;;;50.95;31.13;;;0.70;74.80;;;;;;5050855;28;20037;-60
2021/12/23 00:47:44;;;;;;;54.95;32.33;;;0.70;74.90;;;;;;5050756;28;20032;-60
2021/12/23 00:50:10;;;;;;;51.63;30.92;;;0.70;74.90;;;;;;5051239;28;20029;-63
2021/12/23 00:52:38;;;;;;;49.88;30.30;;;0.70;74.80;;;;;;5050851;28;20086;-60
2021/12/23 00:55:06;;;;;;;52.67;29.98;;;0.70;74.60;;;;;;5051315;28;20116;-58
2021/12/23 00:57:36;;;;;;;52.72;31.05;;;0.70;74.60;;;;;;5050791;28;20497;-57
2021/12/23 01:00:05;;;;;;;50.88;29.35;;;0.70;74.60;;;;;;5051271;28;20036;-62
2021/12/23 01:02:32;;;;;;;52.65;31.42;;;0.70;74.60;;;;;;5050832;28;20017;-63
2021/12/23 01:04:59;;;;;;;49.72;30.20;;;0.60;74.90;;;;;;5049760;28;20029;-63
2021/12/23 01:07:25;;;;;;;53.45;30.05;;;0.60;74.90;;;;;;5050107;28;20517;-63
2021/12/23 01:09:51;;;;;;;50.17;31.35;;;0.70;75.10;;;;;;5049644;28;20025;-61
2021/12/23 01:12:22;;;;;;;52.58;30.55;;;0.60;74.90;;;;;;5050440;28;20028;-63
2021/12/23 01:14:58;;;;;;;51.17;30.00;;;0.70;75.00;;;;;;5050139;28;20032;-60
2021/12/23 01:19:55;;;;;;;48.17;29.48;;;0.70;74.70;;;;;;5050188;28;20462;-63
2021/12/23 01:22:22;;;;;;;51.10;30.63;;;0.70;74.70;;;;;;5050451;28;20033;-62
2021/12/23 01:24:48;;;;;;;52.90;32.40;;;0.80;74.60;;;;;;5050168;28;20459;-61
2021/12/23 01:27:15;;;;;;;50.15;29.45;;;0.80;74.60;;;;;;5053429;28;20045;-59
2021/12/23 01:29:41;;;;;;;50.03;29.17;;;0.90;74.60;;;;;;5053928;28;20156;-61
2021/12/23 01:32:11;;;;;;;49.90;30.67;;;0.90;74.30;;;;;;5053570;28;20478;-61
2021/12/23 01:34:37;;;;;;;51.00;30.05;;;1.00;74.00;;;;;;5053157;28;20021;-63
2021/12/23 01:37:04;;;;;;;49.45;30.92;;;1.00;74.00;;;;;;5035612;28;20031;-61
2021/12/23 01:39:31;;;;;;;49.03;30.40;;;1.00;73.70;;;;;;5054297;28;20033;-64
2021/12/23 01:41:57;;;;;;;53.17;30.25;;;1.00;73.80;;;;;;5053845;28;20025;-61
2021/12/23 01:44:22;;;;;;;52.88;30.25;;;1.00;73.80;;;;;;5054117;28;20029;-63
2021/12/23 01:46:48;;;;;;;52.65;30.15;;;1.00;73.70;;;;;;5053810;28;20513;-63
2021/12/23 01:49:14;;;;;;;52.58;30.13;;;1.00;73.40;;;;;;5036606;28;20558;-60
2021/12/23 01:51:40;;;;;;;50.28;30.70;;;1.10;73.60;;;;;;5019778;28;20067;-64
2021/12/23 01:54:05;;;;;;;48.75;30.08;;;1.10;73.50;;;;;;5054481;28;20021;-59
2021/12/23 01:56:31;;;;;;;53.95;31.38;;;1.10;73.50;;;;;;5053892;28;20037;-62
2021/12/23 01:58:57;;;;;;;52.45;29.58;;;1.10;73.50;;;;;;5053410;28;20022;-60
2021/12/23 02:01:23;;;;;;;53.45;30.50;;;1.00;73.30;;;;;;5054306;28;20029;-60
2021/12/23 02:03:49;;;;;;;52.30;30.70;;;0.90;73.30;;;;;;5035456;28;20120;-62
2021/12/23 02:06:15;;;;;;;55.75;33.92;;;0.90;73.70;;;;;;5053852;28;20032;-59
2021/12/23 02:08:42;;;;;;;50.83;31.08;;;0.80;73.60;;;;;;5053335;28;20091;-61
2021/12/23 02:11:10;;;;;;;56.67;32.55;;;0.80;74.00;;;;;;5053609;28;20575;-62
2021/12/23 02:13:36;;;;;;;51.67;32.30;;;0.90;74.00;;;;;;5053699;28;20021;-62
2021/12/23 02:16:03;;;;;;;56.60;32.95;;;0.80;73.90;;;;;;5053518;28;20116;-64
2021/12/23 02:18:29;;;;;;;58.92;34.45;;;0.80;74.20;;;;;;5019946;28;20099;-62
2021/12/23 02:20:57;;;;;;;55.38;31.85;;;0.70;74.20;;;;;;5054131;28;20119;-61
2021/12/23 02:23:23;;;;;;;58.03;32.03;;;0.80;74.60;;;;;;5053973;28;20489;-62
2021/12/23 02:25:49;;;;;;;57.38;32.28;;;0.70;74.40;;;;;;5053319;28;20056;-61
2021/12/23 02:28:17;;;;;;;55.72;32.92;;;0.80;74.40;;;;;;5053770;28;20053;-62
2021/12/23 02:30:44;;;;;;;55.50;32.50;;;0.80;74.30;;;;;;5053735;28;20458;-62
2021/12/23 02:33:10;;;;;;;54.33;32.50;;;0.80;74.50;;;;;;5036132;28;20021;-61
2021/12/23 02:35:37;;;;;;;52.67;31.67;;;0.80;74.30;;;;;;5054079;28;20037;-63
2021/12/23 02:38:04;;;;;;;54.75;31.90;;;0.70;74.20;;;;;;5033514;28;20036;-64
2021/12/23 02:40:34;;;;;;;54.90;31.63;;;0.70;74.30;;;;;;5035190;28;20082;-62
2021/12/23 02:43:08;;;;;;;55.03;30.90;;;0.70;74.40;;;;;;5033840;28;20131;-61
2021/12/23 02:45:33;;;;;;;51.95;30.58;;;0.70;74.50;;;;;;5053364;28;20021;-64
2021/12/23 02:47:59;;;;;;;49.13;29.98;;;0.60;74.60;;;;;;5033321;28;20035;-59
2021/12/23 02:50:25;;;;;;;58.47;31.88;;;0.50;74.70;;;;;;5034121;28;20025;-63
2021/12/23 02:52:50;;;;;;;50.78;30.77;;;0.50;75.00;;;;;;5052404;28;20578;-60
2021/12/23 02:55:19;;;;;;;54.90;31.17;;;0.50;75.30;;;;;;5035015;28;20071;-64
2021/12/23 02:57:46;;;;;;;54.83;32.85;;;0.50;75.30;;;;;;5052034;28;20029;-61
2021/12/23 03:00:12;;;;;;;53.00;33.35;;;0.50;75.30;;;;;;5053103;28;20508;-61
2021/12/23 03:02:40;;;;;;;52.30;30.67;;;0.50;75.20;;;;;;5053466;28;20033;-62
2021/12/23 03:05:07;;;;;;;54.25;32.58;;;0.60;75.40;;;;;;5053660;28;20025;-65
2021/12/23 03:07:33;;;;;;;51.28;30.85;;;0.60;75.30;;;;;;5053351;28;20029;-60
2021/12/23 03:09:59;;;;;;;49.28;30.20;;;0.60;75.20;;;;;;5053003;28;20480;-61
2021/12/23 03:12:24;;;;;;;54.72;32.13;;;0.50;75.30;;;;;;5052883;28;20116;-63
2021/12/23 03:14:50;;;;;;;48.25;29.17;;;0.60;75.50;;;;;;5052210;28;20487;-61
2021/12/23 03:17:16;;;;;;;50.13;31.00;;;0.60;75.50;;;;;;5052718;28;20032;-63
2021/12/23 03:19:42;;;;;;;52.58;31.35;;;0.70;75.30;;;;;;5052806;28;20067;-65
2021/12/23 03:22:07;;;;;;;56.88;31.65;;;0.70;75.10;;;;;;5052816;28;20104;-62
2021/12/23 03:24:33;;;;;;;53.55;32.20;;;0.70;75.30;;;;;;5052383;28;20021;-61
2021/12/23 03:26:59;;;;;;;57.17;32.08;;;0.70;75.10;;;;;;5051696;28;20025;-64
2021/12/23 03:29:25;;;;;;;52.35;31.42;;;0.70;75.00;;;;;;5052494;28;20028;-62
2021/12/23 03:31:51;;;;;;;54.25;31.98;;;0.60;74.90;;;;;;5051972;28;20025;-63
2021/12/23 03:34:17;;;;;;;52.58;32.40;;;0.70;75.20;;;;;;5052406;28;20033;-65
2021/12/23 03:36:43;;;;;;;53.85;31.25;;;0.70;75.00;;;;;;5033718;28;20059;-63
2021/12/23 03:39:08;;;;;;;49.60;30.80;;;0.80;74.80;;;;;;5052792;28;20100;-60
2021/12/23 03:41:34;;;;;;;57.45;33.17;;;0.80;74.70;;;;;;5052333;28;20025;-63
2021/12/23 03:44:00;;;;;;;50.35;31.10;;;0.80;74.60;;;;;;5034059;28;20386;-58
2021/12/23 03:46:26;;;;;;;50.95;31.67;;;0.80;74.80;;;;;;5051780;28;20087;-62
2021/12/23 03:49:10;;;;;;;50.88;30.42;;;0.80;74.70;;;;;;5033242;28;20029;-56
2021/12/23 03:51:37;;;;;;;55.35;29.83;;;0.80;74.70;;;;;;5052396;28;20087;-58
2021/12/23 03:54:03;;;;;;;53.92;30.75;;;0.90;74.60;;;;;;5033726;28;20108;-61
2021/12/23 03:56:29;;;;;;;53.55;31.95;;;0.90;74.60;;;;;;5051986;28;20116;-56
2021/12/23 03:59:14;;;;;;;50.92;30.60;;;0.90;74.70;;;;;;5051534;28;20060;-56
2021/12/23 04:01:41;;;;;;;51.60;30.98;;;0.90;74.20;;;;;;5052389;28;20040;-57
2021/12/23 04:04:06;;;;;;;48.85;30.73;;;0.90;74.30;;;;;;5051736;28;20033;-60
2021/12/23 04:06:32;;;;;;;55.05;29.90;;;0.90;74.20;;;;;;5051762;28;20385;-61
2021/12/23 04:08:58;;;;;;;52.85;30.42;;;1.00;74.40;;;;;;5051883;28;20029;-61
2021/12/23 04:11:24;;;;;;;51.67;31.40;;;1.00;74.20;;;;;;5051994;28;20013;-63
2021/12/23 04:13:52;;;;;;;49.45;30.45;;;1.00;74.00;;;;;;5051498;28;20021;-66
2021/12/23 04:16:18;;;;;;;49.22;30.15;;;1.10;73.90;;;;;;5051638;28;20104;-61
2021/12/23 04:18:46;;;;;;;50.55;30.52;;;1.10;73.70;;;;;;5033661;28;20043;-63
2021/12/23 04:21:15;;;;;;;48.25;30.70;;;1.10;73.80;;;;;;5051356;28;20037;-58
2021/12/23 04:23:41;;;;;;;50.72;29.90;;;1.10;73.70;;;;;;5051754;28;20029;-59
2021/12/23 04:26:09;;;;;;;47.28;30.60;;;1.20;73.70;;;;;;5051453;28;20025;-63
2021/12/23 04:28:47;;;;;;;49.20;29.13;;;1.10;73.40;;;;;;5061173;28;20049;-65
2021/12/23 04:31:18;;;;;;;50.20;29.85;;;1.10;73.60;;;;;;5070330;28;20043;-63
2021/12/23 04:33:46;;;;;;;50.47;29.63;;;1.20;73.60;;;;;;5070857;28;20037;-64
2021/12/23 04:36:12;;;;;;;46.30;29.70;;;1.20;73.50;;;;;;5071293;28;20059;-62
2021/12/23 04:38:40;;;;;;;48.78;30.00;;;1.20;73.30;;;;;;5070021;28;20032;-64
2021/12/23 04:41:06;;;;;;;50.03;30.27;;;1.20;73.20;;;;;;5069709;28;20031;-64
2021/12/23 04:43:32;;;;;;;48.80;28.85;;;1.30;73.20;;;;;;5071567;28;20035;-61
2021/12/23 04:45:58;;;;;;;46.25;29.15;;;1.30;73.00;;;;;;5069592;28;20028;-63
2021/12/23 04:48:23;;;;;;;49.78;30.80;;;1.30;72.90;;;;;;5071490;28;20108;-63
2021/12/23 04:50:49;;;;;;;46.88;28.60;;;1.30;72.70;;;;;;5070937;28;20065;-63
2021/12/23 04:53:15;;;;;;;43.88;29.08;;;1.30;72.70;;;;;;5071114;28;20059;-58
2021/12/23 04:55:42;;;;;;;50.63;29.25;;;1.30;72.70;;;;;;5069596;28;20032;-58
2021/12/23 04:58:08;;;;;;;51.28;30.38;;;1.30;72.80;;;;;;5069901;28;20024;-62
2021/12/23 05:00:34;;;;;;;49.88;29.38;;;1.30;72.80;;;;;;5070338;28;20107;-62
2021/12/23 05:03:00;;;;;;;51.03;30.20;;;1.30;72.60;;;;;;5069411;28;20106;-61
2021/12/23 05:05:25;;;;;;;50.67;28.60;;;1.40;72.60;;;;;;5071301;28;20074;-63
2021/12/23 05:07:51;;;;;;;49.60;30.13;;;1.40;72.60;;;;;;5070744;28;20025;-64
2021/12/23 05:10:18;;;;;;;45.65;29.75;;;1.30;72.40;;;;;;5069349;28;20118;-63
2021/12/23 05:12:46;;;;;;;49.75;30.27;;;1.40;72.40;;;;;;5070844;28;20047;-65
2021/12/23 05:15:16;;;;;;;46.55;29.35;;;1.30;72.60;;;;;;5071109;28;20037;-63
2021/12/23 05:17:43;;;;;;;52.17;30.13;;;1.20;72.60;;;;;;5053539;28;20473;-61
2021/12/23 05:20:11;;;;;;;47.70;29.17;;;1.20;72.70;;;;;;5071138;28;20017;-61
2021/12/23 05:22:37;;;;;;;43.17;29.42;;;1.20;72.70;;;;;;5070927;28;20024;-61
2021/12/23 05:25:04;;;;;;;42.33;27.30;;;1.20;72.60;;;;;;5070508;28;20370;-63
2021/12/23 05:27:30;;;;;;;45.22;29.65;;;1.10;72.80;;;;;;5068932;28;20504;-63
2021/12/23 05:29:56;;;;;;;43.38;28.20;;;1.10;72.90;;;;;;5070530;28;20111;-66
2021/12/23 05:32:21;;;;;;;50.60;29.65;;;1.00;73.10;;;;;;5070724;28;20098;-60
2021/12/23 05:34:47;;;;;;;46.72;29.75;;;1.00;73.30;;;;;;5070612;28;20036;-58
2021/12/23 05:37:13;;;;;;;47.05;29.00;;;0.90;73.80;;;;;;5070929;28;20449;-63
2021/12/23 05:39:39;;;;;;;45.10;28.30;;;0.80;73.30;;;;;;5071087;28;20094;-63
2021/12/23 05:42:05;;;;;;;44.92;28.85;;;0.80;73.60;;;;;;5070240;28;20029;-65
2021/12/23 05:44:31;;;;;;;45.70;27.60;;;0.70;73.70;;;;;;5069472;28;20032;-58
2021/12/23 05:46:57;;;;;;;49.80;29.45;;;0.60;73.90;;;;;;5070060;28;20021;-65
2021/12/23 05:49:23;;;;;;;52.30;30.35;;;0.50;74.40;;;;;;5070887;28;20020;-64
2021/12/23 05:51:48;;;;;;;50.58;30.15;;;0.40;74.50;;;;;;5069048;28;20468;-67
2021/12/23 05:54:14;;;;;;;48.70;29.95;;;0.40;74.80;;;;;;5070810;28;20028;-69
2021/12/23 05:56:40;;;;;;;51.13;30.60;;;0.40;75.00;;;;;;5070675;28;20613;-60
2021/12/23 05:59:08;;;;;;;47.17;28.45;;;0.40;75.00;;;;;;5070320;28;20036;-61
2021/12/23 06:01:34;;;;;;;51.67;29.73;;;0.30;75.20;;;;;;5070483;28;20027;-60
2021/12/23 06:04:00;;;;;;;51.10;30.48;;;0.40;75.30;;;;;;5068775;28;20108;-62
2021/12/23 06:06:26;;;;;;;46.47;27.80;;;0.50;75.30;;;;;;5070214;28;20028;-62
2021/12/23 06:08:51;;;;;;;49.38;30.13;;;0.50;75.10;;;;;;5070001;28;20483;-70
2021/12/23 06:11:17;;;;;;;51.75;29.25;;;0.50;75.00;;;;;;5071715;28;20024;-63
2021/12/23 06:13:45;;;;;;;48.78;30.38;;;0.50;75.10;;;;;;5074042;28;20063;-69
2021/12/23 06:16:11;;;;;;;51.35;30.15;;;0.60;75.00;;;;;;5074224;28;20040;-67
2021/12/23 06:18:36;;;;;;;45.83;29.45;;;0.50;74.80;;;;;;5072770;28;20021;-73
2021/12/23 06:21:03;;;;;;;49.75;30.48;;;0.50;74.80;;;;;;5073215;28;20490;-62
2021/12/23 06:23:30;;;;;;;56.53;30.20;;;0.50;75.00;;;;;;5073780;28;20048;-63
2021/12/23 06:25:56;;;;;;;50.53;30.95;;;0.50;74.90;;;;;;5072214;28;20033;-62
2021/12/23 06:28:22;;;;;;;51.58;29.98;;;0.50;74.70;;;;;;5060499;28;20501;-63
2021/12/23 06:30:47;;;;;;;48.42;30.08;;;0.50;74.70;;;;;;5053307;28;20086;-62
2021/12/23 06:33:13;;;;;;;50.03;30.73;;;0.50;74.60;;;;;;5053918;28;20025;-63
2021/12/23 06:35:39;;;;;;;54.05;31.92;;;0.50;74.80;;;;;;5035914;28;20120;-62
2021/12/23 06:38:07;;;;;;;51.03;31.17;;;0.50;74.80;;;;;;5035295;28;20091;-62
2021/12/23 06:40:33;;;;;;;52.08;29.92;;;0.60;74.80;;;;;;5053617;28;20032;-67
2021/12/23 06:42:59;;;;;;;52.35;30.35;;;0.60;74.60;;;;;;5035442;28;20058;-64
2021/12/23 06:45:25;;;;;;;50.85;29.42;;;0.60;74.50;;;;;;5035891;28;20029;-64
2021/12/23 06:47:51;;;;;;;53.15;29.92;;;0.60;74.10;;;;;;5053041;28;20029;-62
2021/12/23 06:50:18;;;;;;;48.75;29.85;;;0.50;74.20;;;;;;5053443;28;20029;-53
2021/12/23 06:52:45;;;;;;;50.47;30.45;;;0.50;74.40;;;;;;5053320;28;20029;-63
2021/12/23 06:55:11;;;;;;;51.63;30.27;;;0.50;74.40;;;;;;5035070;28;20033;-72
2021/12/23 06:57:41;;;;;;;50.97;31.30;;;0.50;74.50;;;;;;5053454;28;20028;-70
2021/12/23 07:00:13;;;;;;;55.53;33.00;;;0.50;74.30;;;;;;5053109;28;20025;-62
2021/12/23 07:02:40;;;;;;;52.55;30.23;;;0.50;74.40;;;;;;5053423;28;20386;-61
2021/12/23 07:05:08;;;;;;;51.05;32.13;;;0.50;74.40;;;;;;5050954;28;20095;-69
2021/12/23 07:07:42;;;;;;;52.58;31.35;;;0.50;74.40;;;;;;5053718;28;20029;-70
2021/12/23 07:10:09;;;;;;;55.40;30.90;;;0.60;74.00;;;;;;5055243;28;20115;-71
2021/12/23 07:12:35;;;;;;;51.22;30.83;;;0.50;73.90;;;;;;5054199;28;20099;-74
2021/12/23 07:15:01;;;;;;;50.22;29.00;;;0.50;74.10;;;;;;5035071;28;20175;-71
2021/12/23 07:17:27;;;;;;;51.42;30.40;;;0.50;73.90;;;;;;5052992;28;20100;-72
2021/12/23 07:19:52;;;;;;;46.50;30.02;;;0.50;73.90;;;;;;5052543;28;20482;-76
2021/12/23 07:22:18;;;;;;;48.55;30.45;;;0.60;74.00;;;;;;5052426;28;20025;-78
2021/12/23 07:24:44;;;;;;;50.17;30.50;;;0.60;74.00;;;;;;5051925;28;20063;-74
2021/12/23 07:27:11;;;;;;;50.28;29.83;;;0.70;73.90;;;;;;5052170;28;20099;-77
2021/12/23 07:29:37;;;;;;;49.72;29.00;;;0.70;73.40;;;;;;5035268;28;20083;-75
2021/12/23 07:32:05;;;;;;;51.80;30.52;;;0.70;73.00;;;;;;5034902;28;20386;-77
2021/12/23 07:34:32;;;;;;;46.92;28.88;;;0.70;73.30;;;;;;5053214;28;20460;-74
2021/12/23 07:36:57;;;;;;;49.13;28.38;;;0.70;73.00;;;;;;5034078;28;20402;-71
2021/12/23 07:39:23;;;;;;;53.03;30.00;;;0.70;73.10;;;;;;5052255;28;20025;-74
2021/12/23 07:41:50;;;;;;;52.90;29.52;;;0.60;73.20;;;;;;5033956;28;20442;-72
2021/12/23 07:44:21;;;;;;;48.90;29.48;;;0.70;73.20;;;;;;5034593;28;20049;-67
2021/12/23 07:46:49;;;;;;;50.20;30.85;;;0.70;73.30;;;;;;5051968;28;20032;-70
2021/12/23 07:49:15;;;;;;;63.33;39.38;;;0.70;73.30;;;;;;5033778;28;20025;-74
2021/12/23 07:51:41;;;;;;;56.17;31.10;;;0.70;73.10;;;;;;5034639;28;20029;-70
2021/12/23 07:54:07;;;;;;;56.28;31.63;;;0.80;73.10;;;;;;5051836;28;20032;-77
2021/12/23 07:56:33;;;;;;;49.20;29.80;;;0.80;73.00;;;;;;5033993;28;20033;-68
2021/12/23 07:58:59;;;;;;;49.55;28.48;;;0.90;72.60;;;;;;5051776;28;20025;-73
2021/12/23 08:01:24;;;;;;;53.63;30.73;;;0.90;72.50;;;;;;5052202;28;20028;-73
2021/12/23 08:03:50;;;;;;;45.65;28.27;;;0.90;72.30;;;;;;5052570;28;20031;-70
2021/12/23 08:06:16;;;;;;;47.28;29.40;;;0.90;72.40;;;;;;5033873;28;20036;-73
2021/12/23 08:08:43;;;;;;;51.03;30.60;;;1.00;72.50;;;;;;5052284;28;20029;-70
2021/12/23 08:11:09;;;;;;;45.53;28.90;;;1.00;72.30;;;;;;5033716;28;20021;-76
2021/12/23 08:13:36;;;;;;;51.88;29.83;;;1.00;72.00;;;;;;5051531;28;20096;-67
2021/12/23 08:16:04;;;;;;;47.50;30.17;;;0.90;71.90;;;;;;5031049;28;20036;-74
2021/12/23 08:18:31;;;;;;;43.97;28.92;;;1.00;72.40;;;;;;5053229;28;20071;-73
2021/12/23 08:20:57;;;;;;;53.28;30.45;;;1.00;72.20;;;;;;5052359;28;20029;-66
2021/12/23 08:23:24;;;;;;;52.25;30.30;;;1.00;72.20;;;;;;5051019;28;20450;-69
2021/12/23 08:25:50;;;;;;;48.42;31.55;;;1.10;72.10;;;;;;5017135;28;20094;-71
2021/12/23 08:28:16;;;;;;;47.08;30.15;;;1.20;71.60;;;;;;5051815;28;20051;-79
2021/12/23 08:31:00;;;;;;;53.40;30.33;;;1.20;71.60;;;;;;5052364;28;20063;-69
2021/12/23 08:33:26;;;;;;;54.15;31.98;;;1.30;71.70;;;;;;5050700;28;20025;-71
2021/12/23 08:35:52;;;;;;;50.20;30.05;;;1.20;71.10;;;;;;5032392;28;20064;-72
2021/12/23 08:38:18;;;;;;;49.10;30.98;;;1.30;71.30;;;;;;5051770;28;20025;-74
2021/12/23 08:40:44;;;;;;;48.70;29.08;;;1.20;71.00;;;;;;5050462;28;20049;-71
2021/12/23 08:43:09;;;;;;;49.03;30.13;;;1.30;71.30;;;;;;5032498;28;20439;-69
2021/12/23 08:45:35;;;;;;;54.75;30.33;;;1.30;71.20;;;;;;5049905;28;20029;-70
2021/12/23 08:48:01;;;;;;;47.15;30.77;;;1.30;71.10;;;;;;5049095;28;20021;-74
2021/12/23 08:50:29;;;;;;;54.58;30.80;;;1.30;70.80;;;;;;5050402;28;20025;-69
2021/12/23 08:52:56;;;;;;;47.08;30.35;;;1.30;70.90;;;;;;5050805;28;20029;-73
2021/12/23 08:55:24;;;;;;;52.95;30.90;;;1.30;70.90;;;;;;5051327;28;20051;-71
2021/12/23 08:57:50;;;;;;;53.58;30.83;;;1.30;70.70;;;;;;5050842;28;20021;-71
2021/12/23 09:00:18;;;;;;;47.78;29.30;;;1.40;70.70;;;;;;5051390;28;20123;-69
2021/12/23 09:02:46;;;;;;;51.15;30.30;;;1.30;70.60;;;;;;5050479;28;20486;-71
2021/12/23 09:05:12;;;;;;;51.55;30.02;;;1.30;70.90;;;;;;5051013;28;20549;-74
2021/12/23 09:07:38;;;;;;;53.95;30.10;;;1.30;70.90;;;;;;5033023;28;20120;-73
2021/12/23 09:10:06;;;;;;;46.25;29.13;;;1.40;70.90;;;;;;5051908;28;20470;-77
2021/12/23 09:12:32;;;;;;;51.40;30.95;;;1.50;70.70;;;;;;5051937;28;20033;-75
2021/12/23 09:14:58;;;;;;;71.55;31.75;;;1.50;70.60;;;;;;5050305;28;20117;-75
2021/12/23 09:17:23;;;;;;;57.22;32.03;;;1.50;70.40;;;;;;5051396;28;20104;-77
2021/12/23 09:19:49;;;;;;;48.30;29.65;;;1.60;70.30;;;;;;5033835;28;20025;-79
2021/12/23 09:22:15;;;;;;;55.30;32.33;;;1.60;70.10;;;;;;5017239;28;20354;-73
2021/12/23 09:24:45;;;;;;;49.33;30.20;;;1.60;70.10;;;;;;5052254;28;20393;-74
2021/12/23 09:27:25;;;;;;;46.00;29.38;;;1.60;70.20;;;;;;5037061;28;20041;-72
2021/12/23 09:35:03;;;;;;;48.60;29.77;;;1.70;70.40;;;;;;5070854;28;20040;-75
2021/12/23 09:37:29;;;;;;;54.35;30.83;;;1.80;70.30;;;;;;5070216;28;20021;-78
2021/12/23 09:39:57;;;;;;;54.50;31.95;;;1.90;70.00;;;;;;5071277;28;20051;-76
2021/12/23 09:42:27;;;;;;;51.15;30.92;;;1.90;69.80;;;;;;5072850;28;20350;-79
2021/12/23 09:44:59;;;;;;;56.17;31.30;;;1.90;69.40;;;;;;5071489;28;20036;-71
2021/12/23 09:47:27;;;;;;;51.67;30.85;;;1.90;69.70;;;;;;5074115;28;20063;-78
2021/12/23 09:49:58;;;;;;;51.13;31.20;;;2.00;69.80;;;;;;5073146;28;20024;-74
2021/12/23 09:52:29;;;;;;;52.15;32.70;;;2.00;69.70;;;;;;5075780;28;20025;-75
2021/12/23 09:54:56;;;;;;;53.80;31.42;;;2.10;69.50;;;;;;5073835;28;20159;-78
2021/12/23 09:57:22;;;;;;;52.70;31.35;;;2.10;69.60;;;;;;5074745;28;20048;-75
2021/12/23 09:59:48;;;;;;;56.13;31.45;;;2.20;69.30;;;;;;5071587;28;20020;-68
2021/12/23 10:02:15;;;;;;;53.35;31.20;;;2.20;68.90;;;;;;5073001;28;20028;-70
2021/12/23 10:04:41;;;;;;;52.90;32.30;;;2.20;69.00;;;;;;5073775;28;20025;-71
2021/12/23 10:07:07;;;;;;;47.67;28.98;;;2.30;69.00;;;;;;5072935;28;20025;-68
2021/12/23 10:10:01;;;;;;;50.00;30.23;;;2.30;68.80;;;;;;5072059;28;20082;-73
2021/12/23 10:40:06;;;;;;;45.55;27.92;;;2.40;69.00;;;;;;5039346;28;20096;-75
2021/12/23 10:42:32;;;;;;;47.20;29.17;;;2.50;69.20;;;;;;5053437;28;20097;-71
2021/12/23 10:45:17;;;;;;;48.35;29.40;;;2.50;69.20;;;;;;5052706;28;20059;-78
2021/12/23 10:47:55;;;;;;;47.53;28.92;;;2.50;69.40;;;;;;5035587;28;20032;-75
2021/12/23 10:50:43;;;;;;;49.83;29.77;;;2.50;69.10;;;;;;5036445;28;20489;-75
2021/12/23 10:53:35;;;;;;;43.40;27.70;;;2.50;69.00;;;;;;5035364;28;20025;-74
2021/12/23 10:59:20;;;;;;;45.97;27.80;;;2.70;69.30;;;;;;5051645;28;20086;-67
2021/12/23 11:02:13;;;;;;;53.65;30.30;;;2.80;68.50;;;;;;5048304;28;20114;-71
2021/12/23 11:05:10;;;;;;;50.10;31.85;;;2.90;68.60;;;;;;5052839;28;20056;-72
2021/12/23 11:28:01;;;;;;;51.25;29.35;;;2.90;68.90;;;;;;5022436;28;20049;-67
2021/12/23 11:38:23;;;;;;;53.22;30.27;;;3.10;68.70;;;;;;5054126;28;20139;-67
2021/12/23 11:40:54;;;;;;;45.42;28.55;;;3.10;68.50;;;;;;5053676;28;20021;-70
2021/12/23 11:43:47;;;;;;;48.75;29.00;;;3.10;68.40;;;;;;5053759;28;20021;-68
2021/12/23 11:46:23;;;;;;;49.13;28.65;;;3.10;68.60;;;;;;5054361;28;20025;-71
2021/12/23 11:48:53;;;;;;;42.63;27.45;;;3.10;68.50;;;;;;5053638;28;20032;-71
2021/12/23 11:51:26;;;;;;;48.03;29.05;;;3.10;68.50;;;;;;5036670;28;20025;-77
2021/12/23 11:53:52;;;;;;;43.85;26.73;;;3.20;68.30;;;;;;5036001;28;20029;-69
2021/12/23 11:56:21;;;;;;;46.78;29.15;;;3.10;68.30;;;;;;5053021;28;20535;-68
2021/12/23 11:58:48;;;;;;;53.25;29.60;;;3.10;68.30;;;;;;5050658;28;20275;-64
2021/12/23 12:01:20;;;;;;;49.00;29.42;;;3.10;68.50;;;;;;5051160;28;20017;-63
2021/12/23 12:03:56;;;;;;;51.15;29.52;;;3.10;68.80;;;;;;5051603;28;20021;-64
2021/12/23 12:06:40;;;;;;;45.97;28.83;;;3.20;68.80;;;;;;5049804;28;20032;-67
2021/12/23 12:09:17;;;;;;;50.95;29.08;;;3.30;68.50;;;;;;5049905;28;20092;-63
2021/12/23 12:12:02;;;;;;;46.85;27.63;;;3.30;68.10;;;;;;5051110;28;20036;-62
2021/12/23 12:14:36;;;;;;;50.97;28.52;;;3.40;68.00;;;;;;5051996;28;20057;-65
2021/12/23 12:17:24;;;;;;;46.35;28.50;;;3.40;67.80;;;;;;5033203;28;20040;-62
2021/12/23 12:20:03;;;;;;;43.30;28.00;;;3.40;68.00;;;;;;5052177;28;20031;-63
2021/12/23 12:22:59;;;;;;;45.08;28.52;;;3.40;68.00;;;;;;5052772;28;20071;-63
2021/12/23 12:25:24;;;;;;;46.35;27.70;;;3.50;67.80;;;;;;5051444;28;20063;-64
2021/12/23 12:27:56;;;;;;;44.15;28.67;;;3.50;67.70;;;;;;5051295;28;20068;-65
2021/12/23 12:30:38;;;;;;;49.53;29.23;;;3.50;67.80;;;;;;5051242;28;20025;-62
2021/12/23 12:33:09;;;;;;;42.80;27.30;;;3.50;67.60;;;;;;5050907;28;20029;-65
2021/12/23 12:35:34;;;;;;;44.20;27.90;;;3.60;67.60;;;;;;5033644;28;20029;-73
2021/12/23 12:38:21;;;;;;;46.63;28.38;;;3.50;67.50;;;;;;5051018;28;20017;-67
2021/12/23 12:41:08;;;;;;;45.28;27.10;;;3.60;67.60;;;;;;5051350;28;20025;-66
2021/12/23 12:46:10;;;;;;;50.67;29.20;;;3.50;68.00;;;;;;5051131;28;20033;-71
2021/12/23 12:48:55;;;;;;;49.00;29.00;;;3.60;67.70;;;;;;5051465;28;20086;-68
2021/12/23 12:51:23;;;;;;;44.97;27.52;;;3.70;67.50;;;;;;5050438;28;20028;-64
2021/12/23 12:54:03;;;;;;;44.05;27.65;;;3.70;67.00;;;;;;5051428;28;20029;-68
2021/12/23 12:56:31;;;;;;;47.20;28.88;;;3.70;67.30;;;;;;5033007;28;20044;-68
2021/12/23 12:58:57;;;;;;;46.80;28.88;;;3.70;67.20;;;;;;5050237;28;20029;-69
2021/12/23 13:01:37;;;;;;;50.55;32.10;;;3.70;67.00;;;;;;5049740;28;20139;-70
2021/12/23 13:04:06;;;;;;;45.58;27.88;;;3.80;67.30;;;;;;5049726;28;20052;-70
2021/12/23 13:06:41;;;;;;;51.45;28.20;;;3.80;67.20;;;;;;5050667;28;20049;-70
2021/12/23 13:09:14;;;;;;;42.80;27.35;;;3.80;66.90;;;;;;5049354;28;20530;-67
2021/12/23 13:11:44;;;;;;;43.97;26.77;;;3.90;67.10;;;;;;5050733;28;20021;-68
2021/12/23 13:14:20;;;;;;;42.42;26.23;;;3.80;66.60;;;;;;5032070;28;20033;-71
2021/12/23 13:17:06;;;;;;;46.60;28.08;;;3.80;66.90;;;;;;5050577;28;20048;-69
2021/12/23 13:19:34;;;;;;;43.22;26.60;;;3.70;67.00;;;;;;5049588;28;20103;-72
2021/12/23 13:22:05;;;;;;;46.78;28.05;;;3.70;67.30;;;;;;5051777;28;20056;-70
2021/12/23 13:24:32;;;;;;;43.03;27.65;;;3.70;67.60;;;;;;5052515;28;20036;-70
2021/12/23 13:26:59;;;;;;;51.50;29.42;;;3.70;67.30;;;;;;5053183;28;20473;-70
2021/12/23 13:29:28;;;;;;;44.72;29.30;;;3.70;67.20;;;;;;5036261;28;20032;-68
2021/12/23 13:31:55;;;;;;;50.67;28.70;;;3.70;67.20;;;;;;5034102;28;20488;-68
2021/12/23 13:34:23;;;;;;;44.72;28.85;;;3.60;67.60;;;;;;5034981;28;20027;-72
2021/12/23 13:36:55;;;;;;;44.83;28.17;;;3.60;67.80;;;;;;5036042;28;20471;-72
2021/12/23 13:39:27;;;;;;;53.58;28.15;;;3.50;67.70;;;;;;5053714;28;20040;-70
2021/12/23 13:41:58;;;;;;;44.40;28.20;;;3.30;68.00;;;;;;5035570;28;20094;-70
2021/12/23 13:44:34;;;;;;;49.70;29.17;;;3.30;68.40;;;;;;5053929;28;20025;-73
2021/12/23 13:47:18;;;;;;;46.30;28.30;;;3.30;68.70;;;;;;5038210;28;20052;-69
2021/12/23 13:49:47;;;;;;;47.50;29.63;;;3.30;68.80;;;;;;5053643;28;20028;-69
2021/12/23 13:52:31;;;;;;;40.17;27.20;;;3.30;69.20;;;;;;5053323;28;20415;-73
2021/12/23 13:55:05;;;;;;;40.92;26.35;;;3.20;68.30;;;;;;5053797;28;20021;-69
2021/12/23 13:57:37;;;;;;;42.42;28.40;;;3.10;68.30;;;;;;5054863;28;20116;-68
2021/12/23 14:00:30;;;;;;;48.55;29.90;;;3.10;68.90;;;;;;5053076;28;20031;-68